Berrien Springs, MI

2:00 AM EST on December 20, 2014 (GMT -0500)
Berrien Springs Public Schools | Change Station
CLOSE
Current Station
Personal Weather Station
Location: Oronoko Charter Township, MI
Elevation: 669 ft
Nearby Weather Stations

Elev 669 ft 41.95 °N, 86.35 °W | Updated 5 seconds ago

Overcast
Overcast
26.4 °F
Feels Like 26 °F
N
0.0
Wind Variable Wind from SSW
Gusts 0.0 mph

Today
High -- | Low -- °F
--% Chance of Precip.
Yesterday
High -- | Low -- °F
Precip. -- in
8:09 AM 5:16 PM
Waning Crescent, 4% visible
Pressure 30.29 in
Visibility 10.0 miles
Clouds Mostly Cloudy 3200 ft
Windchill 26 °F
Dew Point 19 °F
Humidity 74%
Rainfall 0.00 in
Snow Depth Not available.
UV 0 out of 12
Pollen .10 out of 12
Air Quality Not available.
Flu Activity Not available.
METAR KBEH 200653Z AUTO 00000KT 10SM BKN032 M03/M06 A3027 RMK AO2 SLP257 T10281061

More Conditions Fewer Conditions

Pressure 30.29 in
Visibility 10.0 miles
Clouds Mostly Cloudy 3200 ft
Windchill 26 °F
Dew Point 19 °F
Humidity 74%
Rainfall 0.00 in
Snow Depth Not available.
UV 0 out of 12
Pollen .10 out of 12
Air Quality Not available.
Flu Activity Not available.
METAR KBEH 200653Z AUTO 00000KT 10SM BKN032 M03/M06 A3027 RMK AO2 SLP257 T10281061

More Conditions Fewer Conditions

10-Day Weather Forecast

Almanac

Astronomy

Dec. 20, 2014 Rise Set
Actual Time
Civil Twilight
Nautical Twilight
Astronomical Twilight
Moon
Length of Visible Light
Length of Day
Tomorrow will be .
, % of the Moon is Illuminated

Today's Extremes

State Highs State Lows

Community

WunderPhotos

Upload Photos

1,779,146 photos uploaded!

WunderBlogs® & News

Nearby

Air Quality

  Air Quality AQ Index Pollutant
Not available.

Snow Depth

Station Depth Elevation

Earthquake Activity

City Distance Mag. Time & Date
Minimum magnitude displayed is 2.5.

Coastal Water Temperatures

Place Temperature

Nearby Weather Stations